createdAt,value
2023-05-10T00:00:38.282Z,29.07
2023-05-10T00:01:38.321Z,29.05
2023-05-10T00:02:38.577Z,29.05
2023-05-10T00:03:38.459Z,29.06
2023-05-10T00:04:38.442Z,29.07
2023-05-10T00:05:38.454Z,29.05
2023-05-10T00:06:38.541Z,29.05
2023-05-10T00:07:38.514Z,29.11
2023-05-10T00:08:38.554Z,29.07
2023-05-10T00:09:38.568Z,29.10
2023-05-10T00:10:38.623Z,29.05
2023-05-10T00:11:38.708Z,29.05
2023-05-10T00:12:38.709Z,29.13
2023-05-10T00:13:38.746Z,29.07
2023-05-10T00:14:38.761Z,29.10
2023-05-10T00:15:38.862Z,29.13
2023-05-10T00:16:38.954Z,29.11
2023-05-10T00:17:38.995Z,29.15
2023-05-10T00:18:38.980Z,29.10
2023-05-10T00:19:39.024Z,29.10
2023-05-10T00:20:39.032Z,29.12
2023-05-10T00:21:39.081Z,29.12
2023-05-10T00:22:39.084Z,29.14
2023-05-10T00:23:39.162Z,29.17
2023-05-10T00:24:39.159Z,29.12
2023-05-10T00:25:39.161Z,29.12
2023-05-10T00:26:39.178Z,29.14
2023-05-10T00:27:39.181Z,29.21
2023-05-10T00:28:39.247Z,29.12
2023-05-10T00:29:39.263Z,29.15
2023-05-10T00:30:39.277Z,29.10
2023-05-10T00:31:39.327Z,29.08
2023-05-10T00:32:39.420Z,29.15
2023-05-10T00:33:39.385Z,29.15
2023-05-10T00:34:39.412Z,29.15
2023-05-10T00:35:39.454Z,29.16
2023-05-10T00:36:39.444Z,29.15
2023-05-10T00:37:39.461Z,29.16
2023-05-10T00:38:39.469Z,29.16
2023-05-10T00:39:39.489Z,29.12
2023-05-10T00:40:39.481Z,29.13
2023-05-10T00:41:39.476Z,29.20
2023-05-10T00:42:39.486Z,29.21
2023-05-10T00:43:39.521Z,29.18
2023-05-10T00:44:39.502Z,29.21
2023-05-10T00:45:39.569Z,29.21
2023-05-10T00:46:39.499Z,29.21
2023-05-10T00:47:39.503Z,29.19
2023-05-10T00:48:39.487Z,29.25
2023-05-10T00:49:39.478Z,29.22
2023-05-10T00:50:39.510Z,29.25
2023-05-10T00:51:39.492Z,29.19
2023-05-10T00:52:39.477Z,29.17
2023-05-10T00:53:39.498Z,29.22
2023-05-10T00:54:39.485Z,29.25
2023-05-10T00:55:39.480Z,29.23
2023-05-10T00:56:39.482Z,29.23
2023-05-10T00:57:39.487Z,29.20
2023-05-10T00:58:39.469Z,29.21
2023-05-10T00:59:39.461Z,29.28
2023-05-10T01:00:39.455Z,29.26
2023-05-10T01:01:39.482Z,29.27
2023-05-10T01:02:39.597Z,29.28
2023-05-10T01:03:39.522Z,29.29
2023-05-10T01:04:39.492Z,29.26
2023-05-10T01:05:39.440Z,29.26
2023-05-10T01:06:39.457Z,29.28
2023-05-10T01:07:39.452Z,29.27
2023-05-10T01:08:39.477Z,29.28
2023-05-10T01:09:39.440Z,29.26
2023-05-10T01:10:39.485Z,29.27
2023-05-10T01:11:39.516Z,29.30
2023-05-10T01:12:39.509Z,29.30
2023-05-10T01:13:39.494Z,29.31
2023-05-10T01:14:39.517Z,29.30
2023-05-10T01:15:39.527Z,29.27
2023-05-10T01:16:39.489Z,29.25
2023-05-10T01:17:39.526Z,29.33
2023-05-10T01:18:39.479Z,29.31
2023-05-10T01:19:39.470Z,29.31
2023-05-10T01:20:39.492Z,29.30
2023-05-10T01:21:39.465Z,29.28
2023-05-10T01:22:39.500Z,29.33
2023-05-10T01:23:39.509Z,29.35
2023-05-10T01:24:39.514Z,29.31
2023-05-10T01:25:39.505Z,29.31
2023-05-10T01:26:39.533Z,29.34
2023-05-10T01:27:39.556Z,29.33
2023-05-10T01:28:39.522Z,29.34
2023-05-10T01:29:39.507Z,29.33
2023-05-10T01:30:39.515Z,29.38
2023-05-10T01:31:39.577Z,29.39
2023-05-10T01:32:39.542Z,29.39
2023-05-10T01:33:39.508Z,29.34
2023-05-10T01:34:39.535Z,29.34
2023-05-10T01:35:39.589Z,29.39
2023-05-10T01:36:39.558Z,29.37
2023-05-10T01:37:39.575Z,29.35
2023-05-10T01:38:39.600Z,29.39
2023-05-10T01:39:39.571Z,29.37
2023-05-10T01:40:39.577Z,29.41
2023-05-10T01:41:39.583Z,29.39
2023-05-10T01:42:39.603Z,29.35
2023-05-10T01:43:39.656Z,29.41
2023-05-10T01:44:39.615Z,29.42
2023-05-10T01:45:39.589Z,29.42
2023-05-10T01:46:39.674Z,29.38
2023-05-10T01:47:39.658Z,29.42
2023-05-10T01:48:39.602Z,29.36
2023-05-10T01:49:39.611Z,29.41
2023-05-10T01:50:39.673Z,29.42
2023-05-10T01:51:39.657Z,29.42
2023-05-10T01:52:39.662Z,29.45
2023-05-10T01:53:39.677Z,29.42
2023-05-10T01:54:39.677Z,29.46
2023-05-10T01:55:39.700Z,29.45
2023-05-10T01:56:39.695Z,29.39
2023-05-10T01:57:39.694Z,29.42
2023-05-10T01:58:39.711Z,29.40
2023-05-10T01:59:39.712Z,29.46
2023-05-10T02:00:39.788Z,29.48
2023-05-10T02:01:39.784Z,29.43
2023-05-10T02:02:39.787Z,29.44
2023-05-10T02:03:39.779Z,29.46
2023-05-10T02:04:39.786Z,29.44
2023-05-10T02:05:39.806Z,29.48
2023-05-10T02:06:39.785Z,29.48
2023-05-10T02:07:39.829Z,29.46
2023-05-10T02:08:39.810Z,29.48
2023-05-10T02:09:39.792Z,29.46
2023-05-10T02:10:39.821Z,29.49
2023-05-10T02:11:39.799Z,29.48
2023-05-10T02:12:39.840Z,29.47
2023-05-10T02:13:39.834Z,29.50
2023-05-10T02:14:39.863Z,29.48
2023-05-10T02:15:39.874Z,29.49
2023-05-10T02:16:39.945Z,29.50
2023-05-10T02:17:39.895Z,29.49
2023-05-10T02:18:39.927Z,29.54
2023-05-10T02:19:39.903Z,29.49
2023-05-10T02:20:39.928Z,29.54
2023-05-10T02:21:39.948Z,29.54
2023-05-10T02:22:39.954Z,29.51
2023-05-10T02:23:39.944Z,29.50
2023-05-10T02:24:39.974Z,29.50
2023-05-10T02:25:39.989Z,29.53
2023-05-10T02:26:40.018Z,29.51
2023-05-10T02:27:40.049Z,29.53
2023-05-10T02:28:40.061Z,29.53
2023-05-10T02:29:40.065Z,29.57
2023-05-10T02:30:40.126Z,29.60
2023-05-10T02:31:40.129Z,29.54
2023-05-10T02:32:40.132Z,29.55
2023-05-10T02:33:40.118Z,29.57
2023-05-10T02:34:40.146Z,29.53
2023-05-10T02:35:40.158Z,29.61
2023-05-10T02:36:40.145Z,29.55
2023-05-10T02:37:40.171Z,29.58
2023-05-10T02:38:40.181Z,29.61
2023-05-10T02:39:40.250Z,29.55
2023-05-10T02:40:40.185Z,29.64
2023-05-10T02:41:40.212Z,29.57
2023-05-10T02:42:40.261Z,29.58
2023-05-10T02:43:40.250Z,29.57
2023-05-10T02:44:40.232Z,29.56
2023-05-10T02:45:40.290Z,29.58
2023-05-10T02:46:40.284Z,29.59
2023-05-10T02:47:40.402Z,29.62
2023-05-10T02:48:40.411Z,29.64
2023-05-10T02:49:40.363Z,29.65
2023-05-10T02:50:40.363Z,29.59
2023-05-10T02:51:40.364Z,29.59
2023-05-10T02:52:40.365Z,29.58
2023-05-10T02:53:40.391Z,29.59
2023-05-10T02:54:40.400Z,29.55
2023-05-10T02:55:40.438Z,29.65
2023-05-10T02:56:40.460Z,29.62
2023-05-10T02:57:40.456Z,29.61
2023-05-10T02:58:40.597Z,29.59
2023-05-10T02:59:40.459Z,29.62
2023-05-10T03:00:40.481Z,29.64
2023-05-10T03:01:40.629Z,29.62
2023-05-10T03:02:40.608Z,29.65
2023-05-10T03:03:40.532Z,29.65
2023-05-10T03:04:40.594Z,29.63
2023-05-10T03:05:40.584Z,29.68
2023-05-10T03:06:40.569Z,29.68
2023-05-10T03:07:40.590Z,29.63
2023-05-10T03:08:40.650Z,29.65
2023-05-10T03:09:40.635Z,29.68
2023-05-10T03:10:40.689Z,29.65
2023-05-10T03:11:40.717Z,29.65
2023-05-10T03:12:40.719Z,29.69
2023-05-10T03:13:40.726Z,29.69
2023-05-10T03:14:40.803Z,29.68
2023-05-10T03:15:40.827Z,29.69
2023-05-10T03:16:42.080Z,29.70
2023-05-10T03:17:40.937Z,29.70
2023-05-10T03:18:40.974Z,29.69
2023-05-10T03:19:40.956Z,29.69
2023-05-10T03:20:41.013Z,29.70
2023-05-10T03:21:41.002Z,29.69
2023-05-10T03:22:41.009Z,29.66
2023-05-10T03:23:41.033Z,29.70
2023-05-10T03:24:41.056Z,29.69
2023-05-10T03:25:41.112Z,29.70
2023-05-10T03:26:41.090Z,29.73
2023-05-10T03:27:41.125Z,29.71
2023-05-10T03:28:41.138Z,29.70
2023-05-10T03:29:41.147Z,29.70
2023-05-10T03:30:41.168Z,29.71
2023-05-10T03:31:41.252Z,29.73
2023-05-10T03:32:41.249Z,29.73
2023-05-10T03:33:41.248Z,29.77
2023-05-10T03:34:41.284Z,29.76
2023-05-10T03:35:41.281Z,29.71
2023-05-10T03:36:41.324Z,29.77
2023-05-10T03:37:41.345Z,29.73
2023-05-10T03:38:41.360Z,29.76
2023-05-10T03:39:41.407Z,29.74
2023-05-10T03:40:41.436Z,29.73
2023-05-10T03:41:41.497Z,29.77
2023-05-10T03:42:41.494Z,29.77
2023-05-10T03:43:41.504Z,29.78
2023-05-10T03:44:41.490Z,29.73
2023-05-10T03:45:41.564Z,29.78
2023-05-10T03:46:41.616Z,29.82
2023-05-10T03:47:41.651Z,29.80
2023-05-10T03:48:41.636Z,29.76
2023-05-10T03:49:41.688Z,29.78
2023-05-10T03:50:41.697Z,29.75
2023-05-10T03:51:41.675Z,29.75
2023-05-10T03:52:41.728Z,29.81
2023-05-10T03:53:41.728Z,29.78
2023-05-10T03:54:41.823Z,29.81
2023-05-10T03:55:41.829Z,29.85
2023-05-10T03:56:41.845Z,29.78
2023-05-10T03:57:41.912Z,29.81
2023-05-10T03:58:41.916Z,29.82
2023-05-10T03:59:41.911Z,29.81
2023-05-10T04:00:41.969Z,29.88
2023-05-10T04:01:42.028Z,29.84
2023-05-10T04:02:42.024Z,30.07
2023-05-10T04:03:42.112Z,30.22
2023-05-10T04:04:42.074Z,30.36
2023-05-10T04:05:42.158Z,30.55
2023-05-10T04:06:42.264Z,30.69
2023-05-10T04:07:42.267Z,30.84
2023-05-10T04:08:42.341Z,31.07
2023-05-10T04:09:42.383Z,31.22
2023-05-10T04:10:42.409Z,31.40
2023-05-10T04:11:42.455Z,31.51
2023-05-10T04:12:42.647Z,31.63
2023-05-10T04:13:42.571Z,31.66
2023-05-10T04:14:42.614Z,31.68
2023-05-10T04:15:42.682Z,31.64
2023-05-10T04:16:42.777Z,32.07
2023-05-10T04:17:42.823Z,32.23
2023-05-10T04:18:42.838Z,32.08
2023-05-10T04:19:42.914Z,32.38
2023-05-10T04:20:42.967Z,32.28
2023-05-10T04:21:43.030Z,32.50
2023-05-10T04:22:43.103Z,32.53
2023-05-10T04:23:43.198Z,32.69
2023-05-10T04:24:43.256Z,32.67
2023-05-10T04:25:43.249Z,32.72
2023-05-10T04:26:43.333Z,32.80
2023-05-10T04:27:43.323Z,32.61
2023-05-10T04:28:43.323Z,32.75
2023-05-10T04:29:43.460Z,32.79
2023-05-10T04:30:43.516Z,32.62
2023-05-10T04:31:43.511Z,32.38
2023-05-10T04:32:43.555Z,32.29
2023-05-10T04:33:43.519Z,32.15
2023-05-10T04:34:43.678Z,32.07
2023-05-10T04:35:43.653Z,31.91
2023-05-10T04:36:43.653Z,31.91
2023-05-10T04:37:43.655Z,31.76
2023-05-10T04:38:43.704Z,31.73
2023-05-10T04:39:43.724Z,31.66
2023-05-10T04:40:43.774Z,31.59
2023-05-10T04:41:43.827Z,31.49
2023-05-10T04:42:43.885Z,31.44
2023-05-10T04:43:44.016Z,31.35
2023-05-10T04:44:43.958Z,31.32
2023-05-10T04:45:44.021Z,31.30
2023-05-10T04:46:44.100Z,31.26
2023-05-10T04:47:44.160Z,31.26
2023-05-10T04:48:44.107Z,31.23
2023-05-10T04:49:44.174Z,31.21
2023-05-10T04:50:44.192Z,31.11
2023-05-10T04:51:44.252Z,31.17
2023-05-10T04:52:44.285Z,31.11
2023-05-10T04:53:48.609Z,31.11
2023-05-10T04:54:45.321Z,31.10
2023-05-10T04:55:44.334Z,31.07
2023-05-10T04:56:44.320Z,31.06
2023-05-10T04:57:44.320Z,31.03
2023-05-10T04:58:44.305Z,31.03
2023-05-10T04:59:44.320Z,31.03
2023-05-10T05:00:44.257Z,31.03
2023-05-10T05:01:44.310Z,31.03
2023-05-10T05:02:44.347Z,30.97
2023-05-10T05:03:44.365Z,30.96
2023-05-10T05:04:44.250Z,31.05
2023-05-10T05:05:44.256Z,30.97
2023-05-10T05:06:44.269Z,30.94
2023-05-10T05:07:44.318Z,31.00
2023-05-10T05:08:44.337Z,30.99
2023-05-10T05:09:44.384Z,30.97
2023-05-10T05:10:44.388Z,31.00
2023-05-10T05:11:44.500Z,30.99
2023-05-10T05:12:44.612Z,30.98
2023-05-10T05:13:44.589Z,30.98
2023-05-10T05:14:44.571Z,30.99
2023-05-10T05:15:44.624Z,30.95
2023-05-10T05:16:44.755Z,30.91
2023-05-10T05:17:44.758Z,30.93
2023-05-10T05:18:44.804Z,31.06
2023-05-10T05:19:44.846Z,31.00
2023-05-10T05:20:44.868Z,30.97
2023-05-10T05:21:44.929Z,30.97
2023-05-10T05:22:44.988Z,30.99
2023-05-10T05:23:44.985Z,31.00
2023-05-10T05:24:45.042Z,30.95
2023-05-10T05:25:45.110Z,30.95
2023-05-10T05:26:45.111Z,30.92
2023-05-10T05:27:45.165Z,30.95
2023-05-10T05:28:45.187Z,30.96
2023-05-10T05:29:45.233Z,30.98
2023-05-10T05:30:45.285Z,30.97
2023-05-10T05:31:45.380Z,31.04
2023-05-10T05:32:45.393Z,31.02
2023-05-10T05:33:45.383Z,31.00
2023-05-10T05:34:45.424Z,31.02
2023-05-10T05:35:45.495Z,31.01
2023-05-10T05:36:45.565Z,31.29
2023-05-10T05:37:45.636Z,31.48
2023-05-10T05:38:45.647Z,32.03
2023-05-10T05:39:45.663Z,32.05
2023-05-10T05:40:45.726Z,32.14
2023-05-10T05:41:46.191Z,32.32
2023-05-10T05:42:45.844Z,33.00
2023-05-10T05:43:45.890Z,33.11
2023-05-10T05:44:45.958Z,32.99
2023-05-10T05:45:45.982Z,33.99
2023-05-10T05:46:46.034Z,33.66
2023-05-10T05:47:46.143Z,34.05
2023-05-10T05:48:46.125Z,34.57
2023-05-10T05:49:46.232Z,34.77
2023-05-10T05:50:46.655Z,35.17
2023-05-10T05:51:46.209Z,35.33
2023-05-10T05:52:46.339Z,35.33
2023-05-10T05:53:46.645Z,35.44
2023-05-10T05:54:46.239Z,35.57
2023-05-10T05:55:46.292Z,35.62
2023-05-10T05:56:46.291Z,35.48
2023-05-10T05:57:46.333Z,35.52
2023-05-10T05:58:46.325Z,35.58
2023-05-10T05:59:46.362Z,35.55
2023-05-10T06:00:46.425Z,35.60
2023-05-10T06:01:46.717Z,35.65
2023-05-10T06:02:46.682Z,35.59
2023-05-10T06:03:46.715Z,35.78
2023-05-10T06:04:46.636Z,35.71
2023-05-10T06:05:46.716Z,35.63
2023-05-10T06:06:47.203Z,35.65
2023-05-10T06:07:46.836Z,35.65
2023-05-10T06:08:47.154Z,35.77
2023-05-10T06:09:47.150Z,35.47
2023-05-10T06:10:47.168Z,35.71
2023-05-10T06:11:47.170Z,35.61
2023-05-10T06:12:47.199Z,35.71
2023-05-10T06:13:47.118Z,35.72
2023-05-10T06:14:47.237Z,35.93
2023-05-10T06:15:47.257Z,35.83
2023-05-10T06:16:47.323Z,35.78
2023-05-10T06:17:47.688Z,35.86
2023-05-10T06:18:47.445Z,35.78
2023-05-10T06:19:47.517Z,35.99
2023-05-10T06:20:47.542Z,35.83
2023-05-10T06:21:47.584Z,35.78
2023-05-10T06:22:47.653Z,35.88
2023-05-10T06:23:47.763Z,35.81
2023-05-10T06:24:47.701Z,35.87
2023-05-10T06:25:47.776Z,35.89
2023-05-10T06:26:47.802Z,35.95
2023-05-10T06:27:50.475Z,35.92
2023-05-10T06:28:47.893Z,35.78
2023-05-10T06:29:49.215Z,35.88
2023-05-10T06:30:48.046Z,35.96
2023-05-10T06:31:48.096Z,35.87
2023-05-10T06:32:48.217Z,35.86
2023-05-10T06:33:48.241Z,35.85
2023-05-10T06:34:48.259Z,35.77
2023-05-10T06:35:48.363Z,35.79
2023-05-10T06:36:48.361Z,36.12
2023-05-10T06:37:48.402Z,36.41
2023-05-10T06:38:48.684Z,36.43
2023-05-10T06:39:48.490Z,36.33
2023-05-10T06:40:48.569Z,36.35
2023-05-10T06:41:48.559Z,36.53
2023-05-10T06:42:48.601Z,36.37
2023-05-10T06:43:48.610Z,36.44
2023-05-10T06:44:48.657Z,36.26
2023-05-10T06:45:48.788Z,36.27
2023-05-10T06:46:48.832Z,36.22
2023-05-10T06:47:48.806Z,36.15
2023-05-10T06:48:49.194Z,35.99
2023-05-10T06:49:49.192Z,35.90
2023-05-10T06:50:49.127Z,36.10
2023-05-10T06:51:49.114Z,36.01
2023-05-10T06:52:49.566Z,36.00
2023-05-10T06:53:49.069Z,35.86
2023-05-10T06:54:49.040Z,36.05
2023-05-10T06:55:49.137Z,36.16
2023-05-10T06:56:49.118Z,36.09
2023-05-10T06:57:49.585Z,36.05
2023-05-10T06:58:49.218Z,36.29
2023-05-10T06:59:49.173Z,36.21
2023-05-10T07:00:49.263Z,36.08
2023-05-10T07:01:49.299Z,35.95
2023-05-10T07:02:49.400Z,35.96
2023-05-10T07:03:49.392Z,36.09
2023-05-10T07:04:49.454Z,36.06
2023-05-10T07:05:49.439Z,35.98
2023-05-10T07:06:49.492Z,35.93
2023-05-10T07:07:49.510Z,36.15
2023-05-10T07:08:49.511Z,36.03
2023-05-10T07:09:49.562Z,36.12
2023-05-10T07:10:49.557Z,36.10
2023-05-10T07:11:49.631Z,36.04
2023-05-10T07:12:49.731Z,36.07
2023-05-10T07:13:49.632Z,36.06
2023-05-10T07:14:49.685Z,35.85
2023-05-10T07:15:49.735Z,35.87
2023-05-10T07:16:49.708Z,35.90
2023-05-10T07:17:49.853Z,35.78
2023-05-10T07:18:49.777Z,35.72
2023-05-10T07:19:49.834Z,35.88
2023-05-10T07:20:49.947Z,35.56
2023-05-10T07:21:49.942Z,35.56
2023-05-10T07:22:49.956Z,35.59
2023-05-10T07:23:50.007Z,35.55
2023-05-10T07:24:50.029Z,35.44
2023-05-10T07:25:50.081Z,35.51
2023-05-10T07:26:50.092Z,35.57
2023-05-10T07:27:50.110Z,35.52
2023-05-10T07:28:50.184Z,35.55
2023-05-10T07:29:50.186Z,35.42
2023-05-10T07:30:50.339Z,35.54
2023-05-10T07:31:50.304Z,35.72
2023-05-10T07:32:50.316Z,35.84
2023-05-10T07:33:50.300Z,35.84
2023-05-10T07:34:50.305Z,36.11
2023-05-10T07:35:50.354Z,35.88
2023-05-10T07:36:50.319Z,36.09
2023-05-10T07:37:50.384Z,35.98
2023-05-10T07:38:50.385Z,35.57
2023-05-10T07:39:51.144Z,35.75
2023-05-10T07:40:50.492Z,35.73
2023-05-10T07:41:50.494Z,35.58
2023-05-10T07:42:50.512Z,35.74
2023-05-10T07:43:50.562Z,35.79
2023-05-10T07:44:50.624Z,35.93
2023-05-10T07:45:50.674Z,36.08
2023-05-10T07:46:50.655Z,35.74
2023-05-10T07:47:50.659Z,35.93
2023-05-10T07:48:50.727Z,35.99
2023-05-10T07:49:50.705Z,35.87
2023-05-10T07:50:50.724Z,35.81
2023-05-10T07:51:50.769Z,35.87
2023-05-10T07:52:50.776Z,35.95
2023-05-10T07:53:50.766Z,36.11
2023-05-10T07:54:50.773Z,35.92
2023-05-10T07:55:50.770Z,35.98
2023-05-10T07:56:50.792Z,35.98
2023-05-10T07:57:50.841Z,35.82
2023-05-10T07:58:50.824Z,35.82
2023-05-10T07:59:50.887Z,35.78
2023-05-10T08:00:50.881Z,35.87
2023-05-10T08:01:50.881Z,35.84
2023-05-10T08:02:50.976Z,35.84
2023-05-10T08:03:50.986Z,35.94
2023-05-10T08:04:50.953Z,36.02
2023-05-10T08:05:50.886Z,36.04
2023-05-10T08:06:50.964Z,35.89
2023-05-10T08:07:50.968Z,35.83
2023-05-10T08:08:50.976Z,35.89
2023-05-10T08:09:50.985Z,35.96
2023-05-10T08:10:51.001Z,35.99
2023-05-10T08:11:50.987Z,35.87
2023-05-10T08:12:50.991Z,36.06
2023-05-10T08:13:51.003Z,36.12
2023-05-10T08:14:51.017Z,36.20
2023-05-10T08:15:51.061Z,36.11
2023-05-10T08:16:51.012Z,36.22
2023-05-10T08:17:51.124Z,36.15
2023-05-10T08:18:51.156Z,36.14
2023-05-10T08:19:51.122Z,36.34
2023-05-10T08:20:51.113Z,36.32
2023-05-10T08:21:51.126Z,36.42
2023-05-10T08:22:51.906Z,36.43
2023-05-10T08:23:51.128Z,36.20
2023-05-10T08:24:51.171Z,36.32
2023-05-10T08:25:51.173Z,36.38
2023-05-10T08:26:51.174Z,36.16
2023-05-10T08:27:51.216Z,36.19
2023-05-10T08:28:51.279Z,36.20
2023-05-10T08:29:51.280Z,36.21
2023-05-10T08:30:51.232Z,36.25
2023-05-10T08:31:51.333Z,36.02
2023-05-10T08:32:51.284Z,35.87
2023-05-10T08:33:51.274Z,35.98
2023-05-10T08:34:51.324Z,36.00
2023-05-10T08:35:51.328Z,36.09
2023-05-10T08:36:51.369Z,36.11
2023-05-10T08:37:51.331Z,36.05
2023-05-10T08:38:52.116Z,36.11
2023-05-10T08:39:51.419Z,36.16
2023-05-10T08:40:51.470Z,36.11
2023-05-10T08:41:51.570Z,36.19
2023-05-10T08:42:51.528Z,36.26
2023-05-10T08:43:51.562Z,36.31
2023-05-10T08:44:51.606Z,36.33
2023-05-10T08:45:51.645Z,36.35
2023-05-10T08:46:51.673Z,36.29
2023-05-10T08:47:51.702Z,36.66
2023-05-10T08:48:51.730Z,36.89
2023-05-10T08:49:52.094Z,36.79
2023-05-10T08:50:51.748Z,36.89
2023-05-10T08:51:51.790Z,36.99
2023-05-10T08:52:51.806Z,37.04
2023-05-10T08:53:51.873Z,37.09
2023-05-10T08:54:51.850Z,37.03
2023-05-10T08:55:51.909Z,36.96
2023-05-10T08:56:51.936Z,36.85
2023-05-10T08:57:51.972Z,37.02
2023-05-10T08:58:51.994Z,37.15
2023-05-10T08:59:52.012Z,37.08
2023-05-10T09:00:52.166Z,37.14
2023-05-10T09:01:52.014Z,37.16
2023-05-10T09:02:52.102Z,37.35
2023-05-10T09:03:52.137Z,37.33
2023-05-10T09:04:52.269Z,37.05
2023-05-10T09:05:52.098Z,37.25
2023-05-10T09:06:52.100Z,37.12
2023-05-10T09:07:52.122Z,37.25
2023-05-10T09:08:52.182Z,37.06
2023-05-10T09:09:52.191Z,37.11
2023-05-10T09:10:52.234Z,37.32
2023-05-10T09:11:52.298Z,37.21
2023-05-10T09:12:52.338Z,37.04
2023-05-10T09:13:52.361Z,37.17
2023-05-10T09:14:52.454Z,37.03
2023-05-10T09:15:53.088Z,37.64
2023-05-10T09:16:52.539Z,37.05
2023-05-10T09:17:52.593Z,36.99
2023-05-10T09:18:52.651Z,37.73
2023-05-10T09:19:52.569Z,37.68
2023-05-10T09:20:52.556Z,37.86
2023-05-10T09:21:52.633Z,37.69
2023-05-10T09:22:52.673Z,38.03
2023-05-10T09:23:52.738Z,37.97
2023-05-10T09:24:52.750Z,38.19
2023-05-10T09:25:52.841Z,38.12
2023-05-10T09:26:52.909Z,37.98
2023-05-10T09:27:52.957Z,37.96
2023-05-10T09:28:53.029Z,37.82
2023-05-10T09:29:52.983Z,38.02
2023-05-10T09:30:53.078Z,38.47
2023-05-10T09:31:53.090Z,37.39
2023-05-10T09:32:53.191Z,36.48
2023-05-10T09:33:53.206Z,35.55
2023-05-10T09:34:53.296Z,35.16
2023-05-10T09:35:53.240Z,35.02
2023-05-10T09:36:53.315Z,35.00
2023-05-10T09:37:53.346Z,34.82
2023-05-10T09:38:53.428Z,34.99
2023-05-10T09:39:53.517Z,35.06
2023-05-10T09:40:53.530Z,35.09
2023-05-10T09:41:53.524Z,35.09
2023-05-10T09:42:53.602Z,35.23
2023-05-10T09:43:53.572Z,35.34
2023-05-10T09:44:53.599Z,35.53
2023-05-10T09:45:53.619Z,35.64
2023-05-10T09:46:53.624Z,35.59
2023-05-10T09:47:53.727Z,35.59
2023-05-10T09:48:53.685Z,35.58
2023-05-10T09:49:53.690Z,35.69
2023-05-10T09:50:53.697Z,35.52
2023-05-10T09:51:53.696Z,35.60
2023-05-10T09:52:54.105Z,35.68
2023-05-10T09:53:53.937Z,35.64
2023-05-10T09:54:53.943Z,35.63
2023-05-10T09:55:53.861Z,35.72
2023-05-10T09:56:53.891Z,35.81
2023-05-10T09:57:53.944Z,35.84
2023-05-10T09:58:53.981Z,35.87
2023-05-10T09:59:54.001Z,35.88
2023-05-10T10:00:54.064Z,35.89
2023-05-10T10:01:54.196Z,35.82
2023-05-10T10:02:54.192Z,35.88
2023-05-10T10:03:54.230Z,35.98
2023-05-10T10:04:54.357Z,35.82
2023-05-10T10:05:54.351Z,35.86
2023-05-10T10:06:54.415Z,35.83
2023-05-10T10:07:54.471Z,35.78
2023-05-10T10:08:56.777Z,35.76
2023-05-10T10:09:54.665Z,35.84
2023-05-10T10:10:54.644Z,35.87
2023-05-10T10:11:54.713Z,36.06
2023-05-10T10:12:54.772Z,36.00
2023-05-10T10:13:54.822Z,35.96
2023-05-10T10:14:54.888Z,35.97
2023-05-10T10:15:55.006Z,35.99
2023-05-10T10:17:05.862Z,36.00
2023-05-10T10:17:56.060Z,35.99
2023-05-10T10:18:55.110Z,35.91
2023-05-10T10:19:54.977Z,35.77
2023-05-10T10:20:54.969Z,35.83
2023-05-10T10:21:55.075Z,35.80
2023-05-10T10:22:54.968Z,35.80
2023-05-10T10:23:54.947Z,35.75
2023-05-10T10:24:54.958Z,35.77
2023-05-10T10:25:54.953Z,35.80
2023-05-10T10:26:55.084Z,35.72
2023-05-10T10:27:54.985Z,35.77
2023-05-10T10:28:55.011Z,35.61
2023-05-10T10:29:55.067Z,35.43
2023-05-10T10:30:55.053Z,35.06
2023-05-10T10:31:55.147Z,34.98
2023-05-10T10:32:55.104Z,34.92
2023-05-10T10:33:55.120Z,35.11
2023-05-10T10:34:55.137Z,35.29
2023-05-10T10:35:55.196Z,35.28
2023-05-10T10:36:55.264Z,35.30
2023-05-10T10:37:55.341Z,35.47
2023-05-10T10:38:55.387Z,35.45
2023-05-10T10:39:55.452Z,35.45
2023-05-10T10:40:55.565Z,35.62
2023-05-10T10:41:55.601Z,35.60
2023-05-10T10:42:55.586Z,35.60
2023-05-10T10:43:55.640Z,35.64
2023-05-10T10:44:55.642Z,35.57
2023-05-10T10:45:55.712Z,35.60
2023-05-10T10:46:55.750Z,35.51
2023-05-10T10:47:55.762Z,35.43
2023-05-10T10:48:55.752Z,35.64
2023-05-10T10:49:55.840Z,35.42
2023-05-10T10:50:55.843Z,35.31
2023-05-10T10:51:55.889Z,35.27
2023-05-10T10:52:55.924Z,35.39
2023-05-10T10:53:55.917Z,35.29
2023-05-10T10:54:55.981Z,35.28
2023-05-10T10:55:55.959Z,35.22
2023-05-10T10:56:55.991Z,35.24
2023-05-10T10:57:56.010Z,35.00
2023-05-10T10:58:56.038Z,34.95
2023-05-10T10:59:56.036Z,35.02
2023-05-10T11:00:56.153Z,34.77
2023-05-10T11:01:56.070Z,34.70
2023-05-10T11:02:56.212Z,34.68
2023-05-10T11:03:56.173Z,34.58
2023-05-10T11:04:56.092Z,34.46
2023-05-10T11:05:56.148Z,34.63
2023-05-10T11:06:56.113Z,34.60
2023-05-10T11:07:56.180Z,34.57
2023-05-10T11:08:56.184Z,34.61
2023-05-10T11:09:56.203Z,34.62
2023-05-10T11:10:56.187Z,34.44
2023-05-10T11:11:56.497Z,34.39
2023-05-10T11:12:56.214Z,34.31
2023-05-10T11:13:56.217Z,34.30
2023-05-10T11:14:56.221Z,34.36
2023-05-10T11:15:56.212Z,34.52
2023-05-10T11:16:56.338Z,34.19
2023-05-10T11:17:56.268Z,34.09
2023-05-10T11:18:56.406Z,33.70
2023-05-10T11:19:56.345Z,33.42
2023-05-10T11:20:56.393Z,33.19
2023-05-10T11:21:56.456Z,32.97
2023-05-10T11:22:56.503Z,32.71
2023-05-10T11:23:56.525Z,32.47
2023-05-10T11:24:56.523Z,32.40
2023-05-10T11:25:56.521Z,32.23
2023-05-10T11:26:56.608Z,32.12
2023-05-10T11:27:57.010Z,32.08
2023-05-10T11:28:56.634Z,31.95
2023-05-10T11:29:56.645Z,31.77
2023-05-10T11:30:56.700Z,31.63
2023-05-10T11:31:56.676Z,31.50
2023-05-10T11:32:56.743Z,31.28
2023-05-10T11:33:56.704Z,31.18
2023-05-10T11:34:56.740Z,30.96
2023-05-10T11:35:56.765Z,31.00
2023-05-10T11:36:56.843Z,30.98
2023-05-10T11:37:56.799Z,31.00
2023-05-10T11:38:56.844Z,30.93
2023-05-10T11:39:56.857Z,30.99
2023-05-10T11:40:56.898Z,31.03
2023-05-10T11:41:56.938Z,31.08
2023-05-10T11:42:57.013Z,31.11
2023-05-10T11:43:57.017Z,30.99
2023-05-10T11:44:57.051Z,31.02
2023-05-10T11:45:57.180Z,30.87
2023-05-10T11:46:57.177Z,30.81
2023-05-10T11:47:57.292Z,30.78
2023-05-10T11:48:57.295Z,30.88
2023-05-10T11:49:57.374Z,30.73
2023-05-10T11:50:57.405Z,30.79
2023-05-10T11:51:57.464Z,30.73
2023-05-10T11:52:57.495Z,30.57
2023-05-10T11:53:57.596Z,30.57
2023-05-10T11:54:57.612Z,30.64
2023-05-10T11:55:57.640Z,30.44
2023-05-10T11:56:57.658Z,30.35
2023-05-10T11:57:57.750Z,30.19
2023-05-10T11:58:57.766Z,29.91
2023-05-10T11:59:57.746Z,30.02
2023-05-10T12:00:57.766Z,30.03
2023-05-10T12:01:57.802Z,30.06
2023-05-10T12:02:57.920Z,30.04
2023-05-10T12:03:57.954Z,30.61
2023-05-10T12:04:57.834Z,30.68
2023-05-10T12:05:57.804Z,30.83
2023-05-10T12:06:57.835Z,32.48
2023-05-10T12:07:57.817Z,32.00
2023-05-10T12:08:57.792Z,32.71
2023-05-10T12:09:57.803Z,32.92
2023-05-10T12:10:57.824Z,33.25
2023-05-10T12:11:57.825Z,34.05
2023-05-10T12:12:57.952Z,34.28
2023-05-10T12:13:57.953Z,34.56
2023-05-10T12:14:57.913Z,34.60
2023-05-10T12:15:57.971Z,34.92
2023-05-10T12:16:57.953Z,34.80
2023-05-10T12:17:57.929Z,34.96
2023-05-10T12:18:58.075Z,35.15
2023-05-10T12:19:57.992Z,35.22
2023-05-10T12:20:57.955Z,35.40
2023-05-10T12:21:57.934Z,35.42
2023-05-10T12:22:59.759Z,35.65
2023-05-10T12:23:58.109Z,35.48
2023-05-10T12:24:58.062Z,35.53
2023-05-10T12:25:58.132Z,35.39
2023-05-10T12:26:58.072Z,35.61
2023-05-10T12:27:58.070Z,35.56
2023-05-10T12:28:58.149Z,35.47
2023-05-10T12:29:58.161Z,35.47
2023-05-10T12:30:58.153Z,35.60
2023-05-10T12:31:58.154Z,35.51
2023-05-10T12:32:58.122Z,35.35
2023-05-10T12:33:58.122Z,35.46
2023-05-10T12:34:58.128Z,35.55
2023-05-10T12:35:58.144Z,35.46
2023-05-10T12:36:58.135Z,35.54
2023-05-10T12:37:58.207Z,35.42
2023-05-10T12:38:58.224Z,35.44
2023-05-10T12:39:58.280Z,35.60
2023-05-10T12:40:58.380Z,35.65
2023-05-10T12:41:58.383Z,35.65
2023-05-10T12:42:58.502Z,35.54
2023-05-10T12:43:58.473Z,35.58
2023-05-10T12:44:58.501Z,35.60
2023-05-10T12:45:58.609Z,35.61
2023-05-10T12:46:58.652Z,35.51
2023-05-10T12:47:58.662Z,35.43
2023-05-10T12:49:08.596Z,35.46
2023-05-10T12:49:59.732Z,35.51
2023-05-10T12:50:58.716Z,35.55
2023-05-10T12:51:58.678Z,35.65
2023-05-10T12:52:58.669Z,35.53